Soaring Guidance
Issued by NWS Reno, NV

Home | Current Version | Previous Version | Text Only | Print | Product List | Glossary On
Versions: 1 2 3 4 5 6 7 8 9 10 11 12 13
000
UXUS97 KREV 271359
SRGREV

SOARING FORECAST
NATIONAL WEATHER SERVICE - RENO NV
700 AM PDT SAT AUG 27 2016

THIS SOARING FORECAST IS FOR THE EASTERN SIERRA AND WESTERN NEVADA
WITH SPECIFIC INDICES FOR THE GREATER RENO AREA.

THIS FORECAST IS PREPARED DAILY BY 700 AM AND IS NOT UPDATED.

FOR CURRENT FLIGHT CONDITIONS...FORECASTS...AND ADVISORIES...ACCESS
YOUR LOCAL BRIEFING OUTLET OR FLIGHT SERVICE STATION.

*******************************************************************
FORECASTED LOCAL INDICES FOR RENO:        TODAY     YESTERDAY
FORECASTED MAX TEMP AT RENO (DEG F).....     91          91
FORECASTED TRIGGER TEMPERATURE (DEG F)..     76          75
   EXCEEDED YESTERDAY BY 1055 AM PDT
FORECASTED MAXIMUM ALTITUDE (FT MSL)....  15800       16300
FORECASTED SOARING INDEX (FPM)..........    924         999
FORECASTED K-INDEX.........VALID 18Z....      3           7
FORECASTED K-INDEX.........VALID 00Z....     10          11
FORECASTED LIFTED INDEX....VALID 18Z....      8           9
FORECASTED LIFTED INDEX....VALID 00Z....      5           6

AFTERNOON WINDS ALOFT FORECAST
MSL (FT) WIND/TEMP
9000  2811/+16
10000 2710/+13
12000 2708/+07
14000 2808/+02
16000 3009/-03
18000 3210/-08
24000 3213/-21
30000 3514/-37
34000 3514/-47
39000 3217/-59

SLIDE MOUNTAIN DATA:
     DATE       TIME     TEMP  DEWPT   RH         WIND (MPH)
                        (F)   (F)           | DIR  SPEED GUST
2016-08-27    05:20      52    29     30    | 352    2    3
2016-08-27    05:00      52    29     30    | 355    3    6
2016-08-27    04:50      52    29     30    | 349    4    9
2016-08-27    04:30      52    29     29    | 355    4    8

RENO TAF FORECAST:
KRNO 271121Z 2712/2812 VRB03KT P6SM SKC
     FM272300 29014G24KT P6SM SKC
     FM280500 VRB04KT P6SM SKC

CARSON CITY TAF FORECAST:
KCXP 271121Z 2712/2812 VRB03KT P6SM SKC
     FM272000 22007KT P6SM SKC
     FM272300 27012G22KT P6SM SKC
     FM280300 VRB04KT P6SM SKC

OUTLOOK FOR THE RENO-CARSON CITY-MINDEN AREA:
.SUNDAY...SUNNY. HIGHS 89 TO 94. LIGHT WINDS BECOMING SOUTHWEST
10 TO 15 MPH IN THE AFTERNOON.

SUNRISE AND SUNSET
AUGUST 27 2016........SUNRISE   623 AM PDT   SUNSET   737 PM PDT
AUGUST 28 2016........SUNRISE   624 AM PDT   SUNSET   735 PM PDT


USA.gov is the U.S. government's official web portal to all federal, state and local government web resources and services.